Time;durP1;ratioP1;P1;durP2;ratioP2;P2;SDS_P1;SDS_P2;PMS_P1;PMS_P2;Temp;Humidity;BMP_temperature;BMP_pressure;BME280_temperature;BME280_humidity;BME280_pressure;Samples;Min_cycle;Max_cycle;Signal;HPM_P1;HPM_P2
2023/01/20 00:02:15;;;;;;;76.90;25.98;;;;;;;;;;6148566;23;20112;-59
2023/01/20 00:04:42;;;;;;;76.57;25.42;;;;;;;;;;6147515;23;20049;-48
2023/01/20 00:07:16;;;;;;;71.78;26.02;;;;;;;;;;6148225;23;20404;-46
2023/01/20 00:09:44;;;;;;;68.65;25.38;;;;;;;;;;6147531;23;20395;-49
2023/01/20 00:12:11;;;;;;;63.85;25.27;;;;;;;;;;6150384;23;20022;-49
2023/01/20 00:14:44;;;;;;;68.43;26.30;;;;;;;;;;6148733;23;20022;-47
2023/01/20 19:00:39;;;;;;;18.13;9.65;;;;;;;;;;6086026;23;20033;-61
2023/01/20 19:03:14;;;;;;;17.58;9.52;;;;;;;;;;6086377;23;20018;-60
2023/01/20 19:05:42;;;;;;;19.42;9.90;;;;;;;;;;6086314;23;20027;-52
2023/01/20 19:08:09;;;;;;;21.60;11.75;;;;;;;;;;6085772;23;20079;-48
2023/01/20 19:10:44;;;;;;;20.27;10.23;;;;;;;;;;6085139;23;20035;-47
2023/01/20 19:13:13;;;;;;;18.75;10.50;;;;;;;;;;6083013;23;20468;-49
2023/01/20 19:15:40;;;;;;;18.70;9.90;;;;;;;;;;6084673;23;20072;-49
2023/01/20 19:18:14;;;;;;;19.30;9.65;;;;;;;;;;6084803;23;20026;-53
2023/01/20 19:20:48;;;;;;;19.42;10.07;;;;;;;;;;6085290;23;20090;-51
2023/01/20 19:23:15;;;;;;;17.40;9.88;;;;;;;;;;6087142;23;20110;-49
2023/01/20 19:25:42;;;;;;;16.38;9.80;;;;;;;;;;6085733;23;20101;-48
2023/01/20 19:28:16;;;;;;;22.05;10.25;;;;;;;;;;6085858;23;20487;-49
2023/01/20 19:30:44;;;;;;;19.27;9.77;;;;;;;;;;6085377;23;20106;-50
2023/01/20 19:33:17;;;;;;;15.50;9.00;;;;;;;;;;6081664;23;20097;-50
2023/01/20 19:35:45;;;;;;;15.60;9.27;;;;;;;;;;6086477;23;20022;-48
2023/01/20 19:38:19;;;;;;;15.40;9.13;;;;;;;;;;6085043;23;20352;-53
2023/01/20 19:40:46;;;;;;;;;;;;;;;;;;6086076;23;20060;-61
2023/01/20 19:43:13;;;;;;;20.02;9.30;;;;;;;;;;6086465;23;20618;-67
2023/01/20 19:45:46;;;;;;;16.05;9.18;;;;;;;;;;6086059;23;20544;-67
2023/01/20 19:48:14;;;;;;;17.83;9.60;;;;;;;;;;6084415;23;20160;-67
2023/01/20 19:50:41;;;;;;;15.95;10.18;;;;;;;;;;6086705;23;20048;-67
2023/01/20 19:53:15;;;;;;;16.50;8.50;;;;;;;;;;6086829;23;20027;-66
2023/01/20 19:55:49;;;;;;;16.85;9.10;;;;;;;;;;6086038;23;20029;-67
2023/01/20 19:58:29;;;;;;;20.30;9.98;;;;;;;;;;6089536;23;20029;-66
2023/01/20 20:01:04;;;;;;;18.15;10.05;;;;;;;;;;6112294;23;20018;-75
2023/01/20 20:03:32;;;;;;;19.17;10.32;;;;;;;;;;6114266;23;20029;-50
2023/01/20 20:05:59;;;;;;;18.33;9.65;;;;;;;;;;6115327;23;20029;-50
2023/01/20 20:08:35;;;;;;;15.55;8.98;;;;;;;;;;6115007;23;20072;-49
2023/01/20 20:11:02;;;;;;;18.90;9.50;;;;;;;;;;6114782;23;20461;-48
2023/01/20 20:13:36;;;;;;;15.55;9.07;;;;;;;;;;6114804;23;20105;-48
2023/01/20 20:16:05;;;;;;;13.70;9.57;;;;;;;;;;6113657;23;20021;-50
2023/01/20 20:18:32;;;;;;;16.15;8.93;;;;;;;;;;6114634;23;20033;-51
2023/01/20 20:21:07;;;;;;;14.80;8.93;;;;;;;;;;6115589;23;20483;-61
2023/01/20 20:23:34;;;;;;;15.15;9.30;;;;;;;;;;6115710;23;20072;-61
2023/01/20 20:26:30;;;;;;;17.02;9.48;;;;;;;;;;6116387;23;20098;-61
2023/01/20 20:29:06;;;;;;;15.82;8.93;;;;;;;;;;6116894;23;20674;-61
2023/01/20 20:31:40;;;;;;;21.73;11.00;;;;;;;;;;6114535;23;20029;-61
2023/01/20 20:34:07;;;;;;;;;;;;;;;;;;6114896;23;20022;-61
2023/01/20 20:36:35;;;;;;;17.42;9.38;;;;;;;;;;6116877;23;20343;-49
2023/01/20 20:39:11;;;;;;;15.43;8.63;;;;;;;;;;6115858;23;20105;-79
2023/01/20 20:41:39;;;;;;;15.95;8.90;;;;;;;;;;6117859;23;20025;-77
2023/01/20 20:44:06;;;;;;;20.48;9.63;;;;;;;;;;6117477;23;20097;-79
2023/01/20 20:46:40;;;;;;;16.40;9.27;;;;;;;;;;6116270;23;20022;-80
2023/01/20 20:49:08;;;;;;;;;;;;;;;;;;6116714;23;20052;-78
2023/01/20 20:51:42;;;;;;;16.70;9.30;;;;;;;;;;6116614;23;19920;-78
2023/01/20 20:54:11;;;;;;;14.90;9.05;;;;;;;;;;6117304;23;20098;-61
2023/01/20 20:56:46;;;;;;;14.18;8.05;;;;;;;;;;6117650;23;20105;-56
2023/01/20 20:59:25;;;;;;;20.52;9.57;;;;;;;;;;6115983;23;20109;-58
2023/01/20 21:02:00;;;;;;;16.75;8.65;;;;;;;;;;6116478;23;20057;-58
2023/01/20 21:04:29;;;;;;;15.48;8.80;;;;;;;;;;6117374;23;20267;-55
2023/01/20 21:06:56;;;;;;;15.52;8.23;;;;;;;;;;6117313;23;20548;-56
2023/01/20 21:09:30;;;;;;;14.95;8.25;;;;;;;;;;6116400;23;20061;-57
2023/01/20 21:11:57;;;;;;;16.17;8.55;;;;;;;;;;6117031;23;20028;-49
2023/01/20 21:14:31;;;;;;;13.82;8.90;;;;;;;;;;6115793;23;20052;-59
2023/01/20 21:16:58;;;;;;;;;;;;;;;;;;6115109;23;20026;-67
2023/01/20 21:19:25;;;;;;;14.65;8.15;;;;;;;;;;6116673;23;19927;-68
2023/01/20 21:22:00;;;;;;;13.48;8.50;;;;;;;;;;6117050;23;20022;-67
2023/01/20 21:24:27;;;;;;;13.75;8.25;;;;;;;;;;6115601;23;20077;-67
2023/01/20 21:26:55;;;;;;;12.55;7.97;;;;;;;;;;6117543;23;20097;-66
2023/01/20 21:29:29;;;;;;;12.70;7.88;;;;;;;;;;6116296;23;20091;-68
2023/01/20 21:31:56;;;;;;;15.45;9.13;;;;;;;;;;6116572;23;20029;-58
2023/01/20 21:34:23;;;;;;;17.00;9.35;;;;;;;;;;6113283;23;20089;-53
2023/01/20 21:36:58;;;;;;;16.65;9.00;;;;;;;;;;6115903;23;20514;-54
2023/01/20 21:39:25;;;;;;;15.52;10.27;;;;;;;;;;6115423;23;20101;-56
2023/01/20 21:41:59;;;;;;;18.20;9.85;;;;;;;;;;6116837;23;20355;-55
2023/01/20 21:44:30;;;;;;;18.40;10.00;;;;;;;;;;6112725;23;20108;-56
2023/01/20 21:47:04;;;;;;;16.48;9.00;;;;;;;;;;6115693;23;20064;-54
2023/01/20 21:52:43;;;;;;;16.00;9.77;;;;;;;;;;6116224;23;20028;-76
2023/01/20 21:55:12;;;;;;;16.00;9.48;;;;;;;;;;6116451;23;20034;-76
2023/01/20 21:57:46;;;;;;;17.95;9.93;;;;;;;;;;6116633;23;20049;-76
2023/01/20 22:00:23;;;;;;;16.63;9.40;;;;;;;;;;6116117;23;20033;-75
2023/01/20 22:02:58;;;;;;;16.38;9.77;;;;;;;;;;6116307;23;20032;-74
2023/01/20 22:05:25;;;;;;;17.33;9.38;;;;;;;;;;6114934;23;20108;-76
2023/01/20 22:07:52;;;;;;;15.35;9.23;;;;;;;;;;6115834;23;20485;-58
2023/01/20 22:10:26;;;;;;;15.57;9.18;;;;;;;;;;6118473;23;20109;-58
2023/01/20 22:12:53;;;;;;;17.95;9.55;;;;;;;;;;6116490;23;20033;-58
2023/01/20 22:15:20;;;;;;;13.85;8.35;;;;;;;;;;6119281;23;20110;-57
2023/01/20 22:17:54;;;;;;;16.25;8.38;;;;;;;;;;6119926;23;20022;-58
2023/01/20 22:20:21;;;;;;;16.88;9.98;;;;;;;;;;6119500;23;20037;-59
2023/01/20 22:22:48;;;;;;;14.70;9.27;;;;;;;;;;6118855;23;20084;-58
2023/01/20 22:25:22;;;;;;;18.33;10.18;;;;;;;;;;6117270;23;20052;-57
2023/01/20 22:27:49;;;;;;;17.45;10.18;;;;;;;;;;6119722;23;20061;-57
2023/01/20 22:30:23;;;;;;;16.35;9.40;;;;;;;;;;6119454;23;20351;-61
2023/01/20 22:32:50;;;;;;;16.45;9.30;;;;;;;;;;6119161;23;20026;-60
2023/01/20 22:35:17;;;;;;;15.40;9.82;;;;;;;;;;6118630;23;20103;-60
2023/01/20 22:37:51;;;;;;;14.90;9.88;;;;;;;;;;6118093;23;20128;-60
2023/01/20 22:40:18;;;;;;;14.07;8.75;;;;;;;;;;6118660;23;20575;-61
2023/01/20 22:42:52;;;;;;;14.80;8.40;;;;;;;;;;6118573;23;20026;-60
2023/01/20 22:45:19;;;;;;;13.93;8.70;;;;;;;;;;6119131;23;20052;-46
2023/01/20 22:47:46;;;;;;;12.95;8.63;;;;;;;;;;6119009;23;20105;-57
2023/01/20 22:50:20;;;;;;;12.02;7.97;;;;;;;;;;6118914;23;20060;-58
2023/01/20 22:52:47;;;;;;;13.38;8.98;;;;;;;;;;6118631;23;20096;-58
2023/01/20 22:55:21;;;;;;;15.57;9.32;;;;;;;;;;6116432;23;20067;-58
2023/01/20 22:57:48;;;;;;;16.90;10.15;;;;;;;;;;6148240;23;20018;-57
2023/01/20 23:00:15;;;;;;;17.27;10.32;;;;;;;;;;6123872;23;20029;-58
2023/01/20 23:02:50;;;;;;;16.65;9.18;;;;;;;;;;6147986;23;20028;-53
2023/01/20 23:05:17;;;;;;;16.98;8.07;;;;;;;;;;6147741;23;20562;-52
2023/01/20 23:07:51;;;;;;;14.80;8.20;;;;;;;;;;6143597;23;20136;-50
2023/01/20 23:13:11;;;;;;;13.27;7.18;;;;;;;;;;6146784;23;20363;-52
2023/01/20 23:15:38;;;;;;;11.32;7.60;;;;;;;;;;6146507;23;20025;-48
2023/01/20 23:18:06;;;;;;;11.90;7.32;;;;;;;;;;6148320;23;20204;-53
2023/01/20 23:20:40;;;;;;;11.75;8.00;;;;;;;;;;6146073;23;20033;-48
2023/01/20 23:23:09;;;;;;;11.35;7.55;;;;;;;;;;6148387;23;20026;-74
2023/01/20 23:25:43;;;;;;;11.82;7.95;;;;;;;;;;6138602;23;20356;-47
2023/01/20 23:28:10;;;;;;;14.15;9.18;;;;;;;;;;6146578;23;20017;-47
2023/01/20 23:30:37;;;;;;;13.77;8.75;;;;;;;;;;6148097;23;20128;-48
2023/01/20 23:33:12;;;;;;;15.80;10.48;;;;;;;;;;6148066;23;20022;-46
2023/01/20 23:35:39;;;;;;;13.15;9.15;;;;;;;;;;6145106;23;20113;-46
2023/01/20 23:38:12;;;;;;;15.43;10.05;;;;;;;;;;6148704;23;20169;-48
2023/01/20 23:40:40;;;;;;;11.38;7.97;;;;;;;;;;6146464;23;20499;-55
2023/01/20 23:43:07;;;;;;;10.43;7.28;;;;;;;;;;6147806;23;20033;-61
2023/01/20 23:45:41;;;;;;;11.18;7.28;;;;;;;;;;6147145;23;20100;-60
2023/01/20 23:48:08;;;;;;;13.85;8.60;;;;;;;;;;6147613;23;20021;-60
2023/01/20 23:50:42;;;;;;;10.13;7.43;;;;;;;;;;6146464;23;20481;-61
2023/01/20 23:53:09;;;;;;;9.48;7.03;;;;;;;;;;6148375;23;20195;-61
2023/01/20 23:55:36;;;;;;;11.50;7.10;;;;;;;;;;6146020;23;20124;-60
2023/01/20 23:58:10;;;;;;;11.68;7.22;;;;;;;;;;6146433;23;20100;-60
